Time;durP1;ratioP1;P1;durP2;ratioP2;P2;SDS_P1;SDS_P2;PMS_P1;PMS_P2;Temp;Humidity;BMP_temperature;BMP_pressure;BME280_temperature;BME280_humidity;BME280_pressure;Samples;Min_cycle;Max_cycle;Signal;HPM_P1;HPM_P2
2022/08/17 00:01:17;;;;;;;11.38;6.90;;;;;;;20.08;83.59;98517.60;1720961;82;21031;-79
2022/08/17 00:03:47;;;;;;;10.63;6.35;;;;;;;20.13;84.18;98518.09;1722149;82;21018;-78
2022/08/17 00:06:19;;;;;;;12.80;6.58;;;;;;;20.16;83.90;98512.59;1702469;83;21012;-78
2022/08/17 00:08:59;;;;;;;13.30;7.35;;;;;;;20.18;83.78;98510.69;1722140;82;20980;-79
2022/08/17 00:11:31;;;;;;;13.03;6.85;;;;;;;20.19;83.29;98503.60;1723342;82;21004;-79
2022/08/17 00:14:03;;;;;;;15.20;7.08;;;;;;;20.12;83.14;98506.35;1723070;82;21519;-79
2022/08/17 00:16:38;;;;;;;13.38;7.22;;;;;;;20.11;83.68;98512.57;1722553;82;21558;-80
2022/08/17 00:19:10;;;;;;;11.65;7.20;;;;;;;20.06;83.49;98508.47;1722884;82;20983;-79
2022/08/17 00:21:40;;;;;;;11.80;6.72;;;;;;;19.97;82.24;98506.50;1722944;82;21023;-79
2022/08/17 00:24:08;;;;;;;12.95;6.75;;;;;;;19.86;83.44;98507.78;1722163;82;21099;-78
2022/08/17 00:26:34;;;;;;;11.20;6.70;;;;;;;19.77;83.50;98504.48;1723467;82;21015;-78
2022/08/17 00:29:01;;;;;;;13.08;6.65;;;;;;;19.65;82.31;98509.64;1723855;83;21029;-80
2022/08/17 00:31:28;;;;;;;13.08;6.15;;;;;;;19.56;82.96;98512.95;1725227;82;21042;-79
2022/08/17 00:33:55;;;;;;;13.08;6.30;;;;;;;19.49;83.17;98507.73;1726383;82;21055;-80
2022/08/17 00:36:22;;;;;;;11.95;7.33;;;;;;;19.42;83.69;98502.07;1725041;82;21003;-78
2022/08/17 00:38:50;;;;;;;13.18;6.92;;;;;;;19.38;84.54;98495.81;1723798;83;21063;-79
2022/08/17 00:41:22;;;;;;;13.20;6.70;;;;;;;19.35;84.84;98493.38;1724061;82;21531;-79
2022/08/17 00:43:54;;;;;;;14.45;6.75;;;;;;;19.33;84.41;98492.65;1724123;83;21007;-78
2022/08/17 00:46:27;;;;;;;11.08;6.55;;;;;;;19.27;84.73;98486.84;1723730;82;22281;-79
2022/08/17 00:48:54;;;;;;;10.38;6.35;;;;;;;19.25;85.51;98492.70;1705094;82;21023;-79
2022/08/17 00:51:54;;;;;;;14.23;6.95;;;;;;;19.18;85.66;98492.78;1725350;82;21008;-79
2022/08/17 00:54:31;;;;;;;11.68;6.45;;;;;;;19.19;86.27;98500.20;1723904;82;21040;-78
2022/08/17 00:57:03;;;;;;;13.00;7.03;;;;;;;19.20;85.55;98500.56;1723699;82;21034;-78
2022/08/17 00:59:35;;;;;;;13.93;7.70;;;;;;;19.21;85.99;98504.89;1697631;83;21541;-79
2022/08/17 01:02:03;;;;;;;20.72;7.35;;;;;;;19.24;86.13;98503.38;1710539;83;21559;-80
2022/08/17 01:04:32;;;;;;;9.83;6.15;;;;;;;19.28;86.41;98504.36;1723699;82;20979;-78
2022/08/17 01:07:02;;;;;;;16.62;6.60;;;;;;;19.33;86.31;98504.52;1723727;83;20992;-78
2022/08/17 01:09:30;;;;;;;15.20;6.42;;;;;;;19.36;86.16;98505.14;1723776;82;20999;-80
2022/08/17 01:11:57;;;;;;;15.40;6.70;;;;;;;19.39;86.17;98504.08;1723564;82;20999;-78
2022/08/17 01:14:25;;;;;;;11.33;6.62;;;;;;;19.42;86.12;98499.92;1723728;82;20988;-78
2022/08/17 01:16:54;;;;;;;10.55;6.45;;;;;;;19.43;85.81;98495.00;1723696;82;21035;-77
2022/08/17 01:19:25;;;;;;;16.77;6.28;;;;;;;19.42;86.09;98503.88;1723744;82;20976;-79
2022/08/17 01:22:00;;;;;;;11.85;6.15;;;;;;;19.39;85.76;98500.13;1723714;82;21574;-79
2022/08/17 01:24:26;;;;;;;11.25;6.58;;;;;;;19.33;84.99;98501.88;1723799;82;21024;-78
2022/08/17 01:26:53;;;;;;;13.83;6.30;;;;;;;19.21;85.28;98503.09;1723636;83;21042;-78
2022/08/17 01:29:22;;;;;;;13.43;6.08;;;;;;;19.17;85.82;98498.16;1719332;83;21011;-78
2022/08/17 01:31:56;;;;;;;7.97;5.22;;;;;;;19.12;86.72;98495.85;1723736;82;21020;-78
2022/08/17 01:34:27;;;;;;;9.98;5.72;;;;;;;19.11;85.58;98497.27;1704860;83;21492;-78
2022/08/17 01:36:52;;;;;;;10.38;5.47;;;;;;;19.08;86.02;98493.90;1672888;84;21015;-78
2022/08/17 01:39:40;;;;;;;12.50;6.08;;;;;;;19.09;86.72;98494.73;1688306;85;20995;-78
2022/08/17 01:42:23;;;;;;;13.95;6.55;;;;;;;19.11;86.47;98498.59;1706178;84;21010;-79
2022/08/17 01:44:57;;;;;;;9.70;5.75;;;;;;;19.07;86.71;98495.31;1690613;84;21071;-79
2022/08/17 01:47:24;;;;;;;11.05;5.70;;;;;;;19.04;86.88;98494.23;1690795;84;21494;-78
2022/08/17 01:49:50;;;;;;;11.10;5.95;;;;;;;19.03;86.56;98497.31;1690588;84;21048;-78
2022/08/17 01:52:18;;;;;;;13.22;5.85;;;;;;;19.01;86.66;98497.06;1690448;85;21546;-78
2022/08/17 01:54:47;;;;;;;10.45;5.87;;;;;;;19.04;86.68;98491.59;1678466;84;21018;-78
2022/08/17 01:57:14;;;;;;;14.93;5.78;;;;;;;19.05;87.10;98486.68;1678764;85;21026;-78
2022/08/17 01:59:41;;;;;;;14.60;6.35;;;;;;;19.06;86.77;98491.02;1690471;84;21518;-77
2022/08/17 02:02:07;;;;;;;8.90;6.05;;;;;;;19.02;86.18;98487.74;1690510;84;20987;-78
2022/08/17 02:04:34;;;;;;;11.55;6.80;;;;;;;18.97;85.93;98487.69;1690430;84;21031;-78
2022/08/17 02:07:01;;;;;;;13.85;6.65;;;;;;;18.94;86.49;98486.57;1690516;84;20992;-78
2022/08/17 02:09:29;;;;;;;13.25;7.10;;;;;;;18.91;86.36;98487.63;1705834;84;21006;-79
2022/08/17 02:11:58;;;;;;;13.40;7.25;;;;;;;18.90;86.51;98483.78;1690345;84;21031;-80
2022/08/17 02:14:26;;;;;;;12.80;6.75;;;;;;;18.85;86.74;98480.99;1690607;84;21011;-78
2022/08/17 02:16:53;;;;;;;10.43;7.03;;;;;;;18.80;85.96;98480.94;1686018;85;21515;-78
2022/08/17 02:19:20;;;;;;;13.85;6.85;;;;;;;18.74;86.13;98476.92;1675632;85;20987;-81
2022/08/17 02:21:50;;;;;;;12.58;6.90;;;;;;;18.68;86.16;98482.13;1690005;84;21059;-79
2022/08/17 02:24:27;;;;;;;11.80;5.85;;;;;;;18.65;86.40;98486.75;1675222;84;21094;-78
2022/08/17 02:26:54;;;;;;;11.53;6.40;;;;;;;18.59;86.23;98481.91;1678670;85;21049;-78
2022/08/17 02:29:20;;;;;;;13.48;7.67;;;;;;;18.56;86.51;98482.10;1683771;85;21033;-79
2022/08/17 02:31:47;;;;;;;12.28;7.80;;;;;;;18.54;86.67;98489.27;1669147;85;21032;-78
2022/08/17 02:34:15;;;;;;;11.00;7.50;;;;;;;18.53;86.91;98479.22;1695879;83;21039;-78
2022/08/17 02:36:42;;;;;;;13.72;7.28;;;;;;;18.52;86.97;98480.14;1723893;83;21337;-78
2022/08/17 02:39:11;;;;;;;15.43;7.08;;;;;;;18.53;87.37;98476.58;1723958;83;21019;-79
2022/08/17 02:41:39;;;;;;;13.35;7.10;;;;;;;18.52;86.44;98470.93;1723844;83;21514;-79
2022/08/17 02:44:06;;;;;;;11.12;7.05;;;;;;;18.49;86.86;98471.99;1723948;83;21069;-78
2022/08/17 02:46:33;;;;;;;12.60;7.00;;;;;;;18.45;86.56;98467.88;1724036;82;21038;-78
2022/08/17 02:49:00;;;;;;;16.75;6.95;;;;;;;18.41;86.68;98478.25;1724073;82;21089;-78
2022/08/17 02:51:27;;;;;;;11.50;6.95;;;;;;;18.41;86.75;98476.94;1724264;82;20983;-78
2022/08/17 02:53:54;;;;;;;12.37;7.17;;;;;;;18.43;86.69;98482.94;1724191;83;21545;-78
2022/08/17 02:56:20;;;;;;;12.30;7.17;;;;;;;18.41;86.70;98486.14;1704170;83;21007;-78
2022/08/17 02:58:47;;;;;;;13.38;6.67;;;;;;;18.39;86.98;98491.15;1724140;83;20992;-79
2022/08/17 03:01:14;;;;;;;12.85;7.30;;;;;;;18.38;87.01;98490.31;1725766;79;21028;-78
2022/08/17 03:03:41;;;;;;;15.18;7.03;;;;;;;18.39;86.77;98491.98;1727044;79;21024;-79
2022/08/17 03:06:08;;;;;;;10.80;7.03;;;;;;;18.39;86.56;98498.56;1726944;79;21654;-78
2022/08/17 03:08:37;;;;;;;16.32;7.92;;;;;;;18.37;87.02;98496.51;1726277;82;21059;-81
2022/08/17 03:11:03;;;;;;;17.77;8.28;;;;;;;18.38;86.73;98495.58;1723932;82;20984;-80
2022/08/17 03:13:30;;;;;;;12.93;7.15;;;;;;;18.40;87.21;98500.27;1724149;82;21480;-78
2022/08/17 03:15:58;;;;;;;13.22;7.30;;;;;;;18.37;86.61;98503.09;1724061;82;21044;-78
2022/08/17 03:18:26;;;;;;;16.12;6.92;;;;;;;18.33;87.28;98502.92;1724004;83;21059;-79
2022/08/17 03:20:57;;;;;;;13.38;7.00;;;;;;;18.29;87.11;98509.33;1724170;82;21011;-79
2022/08/17 03:23:25;;;;;;;19.17;7.72;;;;;;;18.22;87.26;98513.30;1723719;82;21083;-80
2022/08/17 03:25:54;;;;;;;19.37;7.15;;;;;;;18.18;87.36;98505.23;1723725;82;21023;-79
2022/08/17 03:28:22;;;;;;;11.75;7.42;;;;;;;18.18;87.57;98509.19;1724198;82;21008;-79
2022/08/17 03:30:49;;;;;;;12.63;6.97;;;;;;;18.13;87.29;98505.55;1719464;82;21480;-78
2022/08/17 03:33:17;;;;;;;13.18;7.20;;;;;;;18.14;87.30;98504.59;1723728;82;21044;-78
2022/08/17 03:35:44;;;;;;;15.28;6.95;;;;;;;18.17;88.00;98508.83;1722652;82;21545;-79
2022/08/17 03:38:12;;;;;;;14.43;7.10;;;;;;;18.18;87.73;98507.39;1722737;83;20990;-79
2022/08/17 03:40:39;;;;;;;15.28;7.08;;;;;;;18.18;87.29;98513.13;1722767;82;21001;-78
2022/08/17 03:43:08;;;;;;;11.88;6.78;;;;;;;18.16;87.02;98518.48;1722689;82;21019;-78
2022/08/17 03:56:49;;;;;;;10.45;6.67;;;;;;;18.17;87.66;98529.39;1722948;82;21016;-78
2022/08/17 03:59:19;;;;;;;11.73;6.58;;;;;;;18.19;88.13;98530.14;1722735;82;21031;-78
2022/08/17 04:01:51;;;;;;;13.30;7.28;;;;;;;18.21;87.63;98535.31;1722965;82;21541;-78
2022/08/17 04:04:18;;;;;;;12.47;6.97;;;;;;;18.22;87.29;98532.58;1723035;82;21008;-78
2022/08/17 04:06:46;;;;;;;10.38;6.90;;;;;;;18.22;87.28;98535.66;1723232;82;21003;-78
2022/08/17 04:09:13;;;;;;;14.35;6.90;;;;;;;18.24;88.08;98545.16;1723546;82;21019;-78
2022/08/17 04:11:40;;;;;;;14.87;7.08;;;;;;;18.31;87.92;98545.59;1724934;82;21304;-79
2022/08/17 04:14:07;;;;;;;12.05;6.60;;;;;;;18.36;87.75;98538.22;1725191;82;21051;-79
2022/08/17 04:16:37;;;;;;;11.25;6.65;;;;;;;18.43;87.39;98538.20;1724024;83;20968;-77
2022/08/17 04:19:05;;;;;;;14.55;6.75;;;;;;;18.47;87.56;98545.43;1722322;82;21044;-80
2022/08/17 04:21:33;;;;;;;13.00;6.70;;;;;;;18.58;87.27;98552.59;1722525;82;21067;-78
2022/08/17 04:24:00;;;;;;;13.55;7.17;;;;;;;18.66;87.14;98556.43;1721903;82;21647;-78
2022/08/17 04:26:27;;;;;;;13.22;6.85;;;;;;;18.71;87.05;98551.33;1722238;82;20945;-79
2022/08/17 04:28:54;;;;;;;12.90;6.92;;;;;;;18.76;86.58;98556.66;1722085;82;21055;-79
2022/08/17 04:31:21;;;;;;;17.85;7.58;;;;;;;18.78;86.53;98556.08;1722283;82;20956;-78
2022/08/17 04:33:48;;;;;;;17.85;7.33;;;;;;;18.87;86.61;98561.22;1722088;82;21083;-77
2022/08/17 04:36:16;;;;;;;11.05;7.17;;;;;;;18.95;86.57;98567.29;1722377;82;20986;-78
2022/08/17 04:38:45;;;;;;;14.00;7.12;;;;;;;19.00;85.82;98568.67;1722257;82;21066;-78
2022/08/17 04:44:00;;;;;;;15.00;7.03;;;;;;;19.14;85.39;98569.49;1717181;83;20981;-78
2022/08/17 04:46:34;;;;;;;13.45;5.95;;;;;;;19.21;85.17;98568.97;1722436;82;21012;-78
2022/08/17 04:49:05;;;;;;;9.95;6.17;;;;;;;19.28;84.65;98570.25;1722431;82;21039;-78
2022/08/17 04:51:39;;;;;;;12.53;6.00;;;;;;;19.33;84.99;98574.35;1722033;82;21095;-80
2022/08/17 04:54:17;;;;;;;14.07;5.87;;;;;;;19.37;84.94;98574.02;1722491;82;20968;-77
2022/08/17 04:56:44;;;;;;;13.70;6.70;;;;;;;19.48;84.97;98570.17;1722600;82;20979;-80
2022/08/17 04:59:18;;;;;;;10.05;6.40;;;;;;;19.58;84.87;98573.49;1720775;82;21492;-78
2022/08/17 05:01:49;;;;;;;18.85;6.47;;;;;;;19.64;84.98;98575.20;1703910;83;20991;-79
2022/08/17 05:04:20;;;;;;;10.23;5.65;;;;;;;19.75;84.92;98571.00;1723948;83;21007;-79
2022/08/17 05:06:48;;;;;;;11.93;6.85;;;;;;;19.86;84.79;98567.13;1723312;82;21044;-78
2022/08/17 05:09:16;;;;;;;11.15;5.83;;;;;;;19.91;84.54;98563.66;1721329;82;21008;-77
2022/08/17 05:11:44;;;;;;;12.03;5.90;;;;;;;19.99;84.53;98557.35;1716665;82;21020;-78
2022/08/17 05:14:13;;;;;;;8.90;6.25;;;;;;;20.16;84.20;98559.27;1722512;82;21010;-78
2022/08/17 05:16:39;;;;;;;15.63;6.90;;;;;;;20.23;84.09;98565.77;1715945;82;21004;-79
2022/08/17 05:19:06;;;;;;;12.45;7.37;;;;;;;20.26;83.10;98566.39;1714068;82;21041;-78
2022/08/17 05:21:33;;;;;;;16.73;7.90;;;;;;;20.32;82.67;98566.41;1707484;82;21002;-78
2022/08/17 05:23:59;;;;;;;15.48;7.85;;;;;;;20.39;82.72;98568.12;1715150;82;21060;-78
2022/08/17 05:26:27;;;;;;;14.28;7.65;;;;;;;20.44;82.35;98560.71;1711893;83;21037;-78
2022/08/17 05:28:55;;;;;;;14.78;7.60;;;;;;;20.44;82.33;98568.14;1702118;82;21015;-78
2022/08/17 05:31:22;;;;;;;14.05;6.83;;;;;;;20.52;81.99;98578.63;1714865;82;21510;-78
2022/08/17 05:33:49;;;;;;;12.05;6.60;;;;;;;20.49;81.33;98575.72;1713677;82;21037;-79
2022/08/17 05:36:16;;;;;;;12.18;6.50;;;;;;;20.52;81.38;98574.18;1707189;83;21037;-78
2022/08/17 05:38:43;;;;;;;13.08;6.53;;;;;;;20.51;80.71;98579.57;1711144;82;21019;-79
2022/08/17 05:41:10;;;;;;;13.65;6.33;;;;;;;20.48;80.62;98579.81;1704938;82;21056;-77
2022/08/17 05:43:41;;;;;;;14.25;6.50;;;;;;;20.49;80.81;98579.67;1708410;83;21035;-78
2022/08/17 05:46:24;;;;;;;20.20;7.05;;;;;;;20.54;80.93;98582.00;1714573;82;21019;-78
2022/08/17 05:49:02;;;;;;;15.08;6.97;;;;;;;20.54;80.97;98581.51;1706520;83;21013;-77
2022/08/17 05:51:42;;;;;;;11.25;6.17;;;;;;;20.63;81.09;98576.04;1713298;82;21043;-78
2022/08/17 05:54:23;;;;;;;13.20;6.50;;;;;;;20.69;80.97;98583.53;1713238;82;20953;-79
2022/08/17 05:57:10;;;;;;;10.28;6.42;;;;;;;20.66;80.73;98587.71;1712746;83;21035;-79
2022/08/17 05:59:48;;;;;;;10.98;6.70;;;;;;;20.68;80.71;98585.80;1703869;83;20962;-79
2022/08/17 06:02:43;;;;;;;10.40;7.03;;;;;;;20.68;80.51;98581.84;1709144;83;21081;-78
2022/08/17 06:05:35;;;;;;;11.40;7.35;;;;;;;20.71;80.34;98589.55;1711638;82;21296;-78
2022/08/17 06:08:13;;;;;;;11.43;6.45;;;;;;;20.78;80.57;98588.59;1692523;83;21535;-79
2022/08/17 06:11:00;;;;;;;11.22;7.03;;;;;;;20.81;79.65;98593.17;1714716;82;20994;-78
2022/08/17 06:14:03;;;;;;;10.53;6.50;;;;;;;20.82;78.81;98590.87;1728818;81;21009;-79
2022/08/17 06:16:38;;;;;;;10.45;6.53;;;;;;;20.81;78.55;98596.27;1733360;81;21021;-78
2022/08/17 06:19:37;;;;;;;10.90;5.90;;;;;;;20.84;78.04;98595.56;1719493;83;21022;-79
2022/08/17 06:22:05;;;;;;;9.18;6.10;;;;;;;20.92;77.65;98591.52;1716263;83;21133;-79
2022/08/17 06:24:50;;;;;;;9.10;5.62;;;;;;;20.89;76.83;98595.24;1726084;82;21520;-78
2022/08/17 06:27:37;;;;;;;8.53;5.35;;;;;;;20.94;77.35;98589.59;1722028;82;21067;-79
2022/08/17 06:30:24;;;;;;;10.18;5.92;;;;;;;21.03;77.36;98589.75;1716818;82;21003;-79
2022/08/17 06:32:54;;;;;;;9.10;5.50;;;;;;;21.13;77.69;98592.98;1718470;83;21008;-79
2022/08/17 06:35:29;;;;;;;11.33;6.50;;;;;;;21.15;76.83;98594.58;1716362;82;21110;-80
2022/08/17 06:38:16;;;;;;;11.57;6.17;;;;;;;21.25;77.17;98584.97;1710942;83;21086;-78
2022/08/17 06:40:54;;;;;;;12.98;6.65;;;;;;;21.33;76.93;98584.38;1691147;82;21109;-78
2022/08/17 06:43:34;;;;;;;12.65;7.17;;;;;;;21.41;76.25;98585.11;1716926;83;21033;-78
2022/08/17 06:46:22;;;;;;;13.10;6.55;;;;;;;21.50;76.37;98596.30;1720747;83;21097;-79
2022/08/17 06:49:13;;;;;;;13.85;7.12;;;;;;;21.55;76.46;98587.55;1728139;82;21580;-79
2022/08/17 06:51:45;;;;;;;14.23;7.35;;;;;;;21.64;76.33;98596.06;1693554;83;21056;-78
2022/08/17 06:54:23;;;;;;;15.58;8.23;;;;;;;21.78;76.14;98598.94;1698717;83;21590;-78
2022/08/17 06:57:16;;;;;;;13.30;8.30;;;;;;;21.69;76.17;98583.81;1711374;84;21659;-78
2022/08/17 06:59:51;;;;;;;22.90;10.70;;;;;;;21.87;76.26;98601.36;1725633;83;21062;-79
2022/08/17 07:02:35;;;;;;;21.27;10.30;;;;;;;21.92;76.15;98603.63;1691937;84;21564;-78
2022/08/17 07:05:05;;;;;;;14.50;9.30;;;;;;;21.93;76.29;98599.55;1717286;83;21543;-79
2022/08/17 07:10:24;;;;;;;15.13;7.83;;;;;;;21.95;75.97;98604.23;1725101;83;21003;-79
2022/08/17 07:12:54;;;;;;;13.43;7.72;;;;;;;21.92;76.02;98611.08;1710809;83;21016;-80
2022/08/17 07:15:26;;;;;;;14.85;7.47;;;;;;;21.88;75.96;98612.28;1712736;83;21007;-79
2022/08/17 07:17:53;;;;;;;19.65;7.90;;;;;;;21.92;76.28;98603.14;1717873;83;21092;-79
2022/08/17 07:20:21;;;;;;;16.48;8.13;;;;;;;21.91;76.35;98609.90;1721127;83;21036;-79
2022/08/17 07:23:08;;;;;;;16.57;7.08;;;;;;;21.95;76.28;98604.72;1715242;83;21125;-79
2022/08/17 07:25:35;;;;;;;15.58;8.00;;;;;;;22.01;76.59;98595.80;1727180;82;21023;-78
2022/08/17 07:28:04;;;;;;;12.43;8.28;;;;;;;22.05;76.32;98601.69;1717704;83;20979;-79
2022/08/17 07:30:37;;;;;;;20.92;9.25;;;;;;;22.15;76.02;98603.12;1712434;83;21015;-78
2022/08/17 07:33:12;;;;;;;16.57;8.43;;;;;;;22.19;75.70;98603.23;1715202;83;21004;-79
2022/08/17 07:35:42;;;;;;;14.60;9.00;;;;;;;22.21;75.44;98604.78;1705764;83;20988;-79
2022/08/17 07:38:23;;;;;;;18.82;8.18;;;;;;;22.27;74.73;98614.06;1697106;84;21024;-79
2022/08/17 07:41:02;;;;;;;15.23;8.20;;;;;;;22.29;74.89;98614.78;1683640;84;21066;-79
2022/08/17 07:43:46;;;;;;;16.65;8.40;;;;;;;22.33;74.67;98614.05;1707930;82;21060;-79
2022/08/17 07:49:16;;;;;;;14.60;7.58;;;;;;;22.38;74.53;98618.02;1704592;83;21062;-78
2022/08/17 07:51:49;;;;;;;11.95;7.35;;;;;;;22.45;74.31;98617.02;1691267;84;21021;-80
2022/08/17 07:54:22;;;;;;;;;;;;;;;22.52;74.25;98620.00;1691264;84;21019;-79
2022/08/17 07:56:55;;;;;;;13.13;6.70;;;;;;;22.56;73.84;98622.30;1692083;84;20143;-78
2022/08/17 07:59:30;;;;;;;13.93;7.53;;;;;;;22.61;74.00;98618.77;1695984;84;21029;-78
2022/08/17 08:02:04;;;;;;;16.50;6.95;;;;;;;22.63;73.85;98617.31;1688692;84;21528;-79
2022/08/17 08:04:45;;;;;;;16.00;8.05;;;;;;;22.76;74.44;98616.67;1685801;84;21634;-79
2022/08/17 08:07:19;;;;;;;13.93;7.47;;;;;;;22.96;74.18;98612.35;1689729;83;21559;-78
2022/08/17 08:10:10;;;;;;;14.98;7.62;;;;;;;23.04;73.18;98605.12;1691673;84;21066;-78
2022/08/17 08:12:46;;;;;;;14.38;7.67;;;;;;;23.17;73.29;98608.88;1692849;84;21004;-79
2022/08/17 08:15:24;;;;;;;14.33;7.78;;;;;;;23.26;72.70;98609.89;1704018;84;21558;-79
2022/08/17 08:18:03;;;;;;;13.40;7.50;;;;;;;23.34;72.12;98611.44;1693186;84;21048;-79
2022/08/17 08:20:50;;;;;;;11.20;7.25;;;;;;;23.36;71.27;98614.80;1671119;84;21196;-79
2022/08/17 08:23:38;;;;;;;15.32;7.20;;;;;;;23.39;71.42;98607.39;1671009;84;21046;-79
2022/08/17 08:26:13;;;;;;;16.52;7.37;;;;;;;23.47;71.05;98605.91;1698972;84;21013;-79
2022/08/17 08:29:11;;;;;;;12.20;6.67;;;;;;;23.54;70.10;98608.39;1696523;84;21039;-79
2022/08/17 08:32:04;;;;;;;21.75;11.45;;;;;;;23.62;69.51;98606.74;1688570;84;21055;-78
2022/08/17 08:35:00;;;;;;;13.20;6.60;;;;;;;23.72;69.04;98608.61;1699064;83;21039;-79
2022/08/17 08:37:50;;;;;;;11.12;6.25;;;;;;;23.77;68.46;98609.03;1698954;83;21512;-79
2022/08/17 08:40:44;;;;;;;9.88;5.87;;;;;;;23.82;67.83;98614.82;1699070;84;21547;-78
2022/08/17 08:43:25;;;;;;;8.28;5.45;;;;;;;23.93;68.03;98616.02;1699070;84;21010;-78
2022/08/17 08:46:18;;;;;;;9.63;5.92;;;;;;;24.10;66.88;98615.05;1699125;84;21002;-78
2022/08/17 08:49:25;;;;;;;9.95;6.50;;;;;;;24.15;67.01;98604.38;1716724;83;21084;-79
2022/08/17 08:52:01;;;;;;;10.88;5.80;;;;;;;24.21;66.47;98608.27;1717046;83;21013;-79
2022/08/17 08:54:55;;;;;;;11.22;6.12;;;;;;;24.30;65.58;98605.30;1716869;82;21049;-79
2022/08/17 08:57:32;;;;;;;9.28;5.22;;;;;;;24.35;65.02;98600.39;1716640;83;21005;-79
2022/08/17 09:00:21;;;;;;;9.08;5.53;;;;;;;24.52;65.83;98601.57;1716900;83;21103;-78
2022/08/17 09:03:24;;;;;;;12.43;5.03;;;;;;;24.70;66.03;98596.40;1716952;82;21072;-79
2022/08/17 09:06:31;;;;;;;10.08;5.67;;;;;;;24.92;66.11;98597.92;1717835;82;20974;-79
2022/08/17 09:09:18;;;;;;;10.13;5.00;;;;;;;25.13;64.60;98598.59;1719390;83;21039;-80
2022/08/17 09:11:56;;;;;;;9.63;5.10;;;;;;;25.37;65.22;98591.98;1719127;82;21025;-80
2022/08/17 09:14:34;;;;;;;11.43;4.85;;;;;;;25.62;64.42;98593.63;1719561;81;21053;-79
2022/08/17 09:17:34;;;;;;;9.08;4.62;;;;;;;25.84;63.73;98597.73;1697374;83;21081;-79
2022/08/17 09:20:24;;;;;;;10.40;4.95;;;;;;;26.02;63.14;98597.81;1704428;83;21090;-78
2022/08/17 09:23:06;;;;;;;14.87;4.90;;;;;;;26.25;63.17;98600.41;1716769;83;20985;-78
2022/08/17 09:25:48;;;;;;;6.65;4.42;;;;;;;26.45;58.13;98599.77;1717133;82;21524;-78
2022/08/17 09:28:18;;;;;;;;;;;;;;;26.61;60.61;98599.63;1719447;82;21029;-79
2022/08/17 09:30:49;;;;;;;11.97;4.78;;;;;;;26.73;58.36;98593.05;1715915;83;20118;-79
2022/08/17 09:33:21;;;;;;;8.60;4.83;;;;;;;26.95;58.70;98590.39;1716704;83;21119;-78
2022/08/17 09:35:56;;;;;;;6.97;4.80;;;;;;;27.12;59.48;98586.86;1713604;83;21513;-78
2022/08/17 09:38:53;;;;;;;13.85;4.72;;;;;;;27.30;58.46;98579.34;1714727;83;21525;-80
2022/08/17 09:41:28;;;;;;;11.10;4.55;;;;;;;27.48;57.36;98585.44;1699550;83;21665;-79
2022/08/17 09:44:21;;;;;;;10.10;4.80;;;;;;;27.67;58.56;98579.00;1713254;83;21049;-78
2022/08/17 09:47:45;;;;;;;7.70;4.90;;;;;;;27.88;55.15;98579.96;1716360;83;21128;-79
2022/08/17 09:50:23;;;;;;;11.88;4.70;;;;;;;28.04;57.55;98573.83;1671678;85;21016;-79
2022/08/17 09:52:55;;;;;;;8.60;4.55;;;;;;;28.12;55.83;98585.88;1703986;84;21053;-79
2022/08/17 09:55:26;;;;;;;10.15;4.72;;;;;;;28.11;55.57;98582.02;1669231;85;21060;-78
2022/08/17 09:58:04;;;;;;;9.85;4.37;;;;;;;28.18;55.61;98570.20;1703056;84;21028;-79
2022/08/17 10:00:36;;;;;;;8.48;4.80;;;;;;;28.35;55.81;98568.73;1685132;85;21054;-79
2022/08/17 10:03:33;;;;;;;8.23;5.03;;;;;;;28.49;55.41;98570.39;1656967;85;21010;-79
2022/08/17 10:06:15;;;;;;;11.05;5.17;;;;;;;28.60;55.56;98571.45;1658658;85;21572;-78
2022/08/17 10:09:07;;;;;;;9.23;5.20;;;;;;;28.61;54.50;98573.13;1685386;85;21132;-79
2022/08/17 10:12:15;;;;;;;10.43;4.83;;;;;;;28.51;53.85;98564.41;1685452;85;21046;-79
2022/08/17 10:15:04;;;;;;;15.63;5.60;;;;;;;28.46;54.27;98560.05;1685441;85;21080;-78
2022/08/17 10:17:52;;;;;;;7.47;4.72;;;;;;;28.53;54.23;98557.06;1685487;85;21028;-79
2022/08/17 10:20:50;;;;;;;9.05;6.40;;;;;;;28.62;53.18;98553.91;1685121;85;21052;-78
2022/08/17 10:26:20;;;;;;;6.87;4.60;;;;;;;28.88;52.96;98553.72;1671647;85;21511;-79
2022/08/17 10:29:01;;;;;;;8.05;4.60;;;;;;;28.97;52.28;98551.38;1685707;85;21044;-79
2022/08/17 10:31:33;;;;;;;8.33;4.15;;;;;;;29.19;52.99;98555.70;1685647;85;21024;-79
2022/08/17 10:34:48;;;;;;;7.45;4.20;;;;;;;29.39;52.04;98552.98;1679887;85;21635;-79
2022/08/17 10:37:27;;;;;;;8.05;4.62;;;;;;;29.54;50.70;98549.92;1673521;85;21594;-80
2022/08/17 10:40:19;;;;;;;11.55;4.20;;;;;;;29.69;50.86;98550.53;1656272;86;21105;-79
2022/08/17 10:43:21;;;;;;;8.30;4.10;;;;;;;29.87;50.17;98552.98;1666341;85;21020;-79
2022/08/17 10:45:53;;;;;;;9.28;4.67;;;;;;;30.03;49.79;98549.39;1704922;84;21049;-79
2022/08/17 10:48:31;;;;;;;5.40;4.12;;;;;;;30.18;49.18;98552.13;1678784;84;21127;-78
2022/08/17 10:51:12;;;;;;;11.83;4.28;;;;;;;30.17;48.63;98547.80;1675199;85;21087;-79
2022/08/17 10:53:48;;;;;;;8.38;3.98;;;;;;;30.22;46.80;98538.70;1653966;86;21077;-79
2022/08/17 10:56:20;;;;;;;7.67;4.20;;;;;;;30.26;47.80;98546.70;1675366;85;21028;-78
2022/08/17 10:58:54;;;;;;;8.80;4.55;;;;;;;30.30;47.56;98542.66;1675335;84;21095;-78
2022/08/17 11:01:38;;;;;;;7.28;4.08;;;;;;;30.39;47.67;98539.46;1676865;85;21056;-79
2022/08/17 11:04:36;;;;;;;7.10;4.42;;;;;;;30.42;46.29;98535.92;1675090;84;21029;-79
2022/08/17 11:07:24;;;;;;;13.13;4.85;;;;;;;30.35;46.97;98535.47;1661904;86;21558;-78
2022/08/17 11:10:14;;;;;;;7.03;4.15;;;;;;;30.41;46.62;98534.23;1674760;85;21558;-79
2022/08/17 11:12:53;;;;;;;8.23;4.00;;;;;;;30.50;47.48;98540.36;1660160;84;21547;-79
2022/08/17 11:15:40;;;;;;;7.62;4.20;;;;;;;30.65;45.96;98537.73;1673199;86;21036;-79
2022/08/17 11:18:33;;;;;;;8.93;4.58;;;;;;;30.63;44.24;98537.09;1674773;85;21067;-78
2022/08/17 11:21:24;;;;;;;8.50;4.60;;;;;;;30.83;44.26;98528.02;1660420;86;21072;-79
2022/08/17 11:24:17;;;;;;;7.15;4.30;;;;;;;30.93;44.27;98526.77;1675436;85;21064;-80
2022/08/17 11:27:24;;;;;;;5.42;3.75;;;;;;;31.03;44.17;98526.50;1652522;86;21745;-79
2022/08/17 11:29:59;;;;;;;9.65;4.37;;;;;;;31.16;44.24;98523.67;1659116;86;21583;-79
2022/08/17 11:32:45;;;;;;;13.68;4.85;;;;;;;31.42;44.27;98517.87;1686059;85;21498;-78
2022/08/17 11:35:23;;;;;;;7.65;3.60;;;;;;;31.57;43.05;98509.81;1677552;85;21055;-79
2022/08/17 11:38:15;;;;;;;6.05;4.33;;;;;;;31.83;43.65;98504.73;1669902;85;22241;-79
2022/08/17 11:41:21;;;;;;;8.58;3.75;;;;;;;32.14;43.90;98494.77;1686916;85;21026;-79
2022/08/17 11:44:21;;;;;;;7.65;4.35;;;;;;;32.39;43.18;98490.67;1686862;85;21066;-79
2022/08/17 11:53:40;;;;;;;18.67;9.83;;;;;;;32.49;42.37;98507.80;1670926;85;21056;-79
2022/08/17 11:56:12;;;;;;;9.13;4.42;;;;;;;32.24;42.14;98513.59;1649512;86;21076;-78
2022/08/17 11:58:42;;;;;;;7.55;4.35;;;;;;;32.03;42.05;98535.08;1668686;86;21560;-79
2022/08/17 12:01:27;;;;;;;7.08;4.12;;;;;;;31.67;42.24;98531.31;1629473;88;21067;-79
2022/08/17 12:04:02;;;;;;;11.68;4.60;;;;;;;31.13;42.74;98541.00;1652469;86;21078;-79
2022/08/17 12:06:44;;;;;;;8.55;4.30;;;;;;;30.21;46.11;98555.30;1645894;85;21043;-79
2022/08/17 12:09:23;;;;;;;11.22;5.00;;;;;;;29.59;49.44;98555.27;1656387;87;21059;-78
2022/08/17 12:11:57;;;;;;;12.82;4.70;;;;;;;28.72;52.30;98551.89;1656068;87;21615;-79
2022/08/17 12:14:28;;;;;;;8.98;5.08;;;;;;;28.16;52.89;98532.95;1656277;87;21082;-79
2022/08/17 12:17:13;;;;;;;11.63;5.20;;;;;;;27.70;53.52;98537.81;1656309;85;21570;-79
2022/08/17 12:19:42;;;;;;;8.75;4.95;;;;;;;27.26;57.55;98541.95;1656128;87;21057;-79
2022/08/17 12:22:32;;;;;;;8.75;5.10;;;;;;;26.88;57.21;98545.32;1656099;85;21054;-79
2022/08/17 12:25:14;;;;;;;12.07;4.87;;;;;;;26.59;57.00;98533.12;1656118;87;21047;-79
2022/08/17 12:27:48;;;;;;;9.80;4.72;;;;;;;26.23;57.40;98544.27;1628719;87;21090;-79
2022/08/17 12:30:19;;;;;;;12.07;5.55;;;;;;;25.89;59.44;98545.71;1652992;87;21074;-78
2022/08/17 12:32:47;;;;;;;7.65;4.55;;;;;;;25.72;59.80;98563.31;1656242;87;21546;-78
2022/08/17 12:35:28;;;;;;;9.25;5.03;;;;;;;25.58;61.03;98559.31;1656078;87;20991;-78
2022/08/17 12:37:57;;;;;;;8.58;4.62;;;;;;;25.47;60.59;98555.53;1656259;87;21054;-78